sensor_id;sensor_type;location;lat;lon;timestamp;temperature;humidity
15241;DHT22;7723;52.170;9.978;2022-11-15T00:00:49;8.60;99.90
15241;DHT22;7723;52.170;9.978;2022-11-15T00:03:18;8.70;99.90
15241;DHT22;7723;52.170;9.978;2022-11-15T00:05:48;8.60;99.90
15241;DHT22;7723;52.170;9.978;2022-11-15T00:08:15;8.60;99.90
15241;DHT22;7723;52.170;9.978;2022-11-15T00:10:46;8.60;99.90
15241;DHT22;7723;52.170;9.978;2022-11-15T00:13:20;8.60;99.90
15241;DHT22;7723;52.170;9.978;2022-11-15T00:15:47;8.50;99.90
15241;DHT22;7723;52.170;9.978;2022-11-15T00:18:15;8.50;99.90
15241;DHT22;7723;52.170;9.978;2022-11-15T00:20:43;8.70;99.90
15241;DHT22;7723;52.170;9.978;2022-11-15T00:23:12;8.90;99.90
15241;DHT22;7723;52.170;9.978;2022-11-15T00:25:39;8.80;99.90
15241;DHT22;7723;52.170;9.978;2022-11-15T00:28:06;8.90;99.90
15241;DHT22;7723;52.170;9.978;2022-11-15T00:30:34;9.00;99.90
15241;DHT22;7723;52.170;9.978;2022-11-15T00:33:02;9.00;99.90
15241;DHT22;7723;52.170;9.978;2022-11-15T00:35:31;9.20;99.90
15241;DHT22;7723;52.170;9.978;2022-11-15T00:37:59;9.20;99.90
15241;DHT22;7723;52.170;9.978;2022-11-15T00:40:28;9.10;99.90
15241;DHT22;7723;52.170;9.978;2022-11-15T00:42:56;9.20;99.90
15241;DHT22;7723;52.170;9.978;2022-11-15T00:45:24;9.10;99.90
15241;DHT22;7723;52.170;9.978;2022-11-15T00:47:51;9.00;99.90
15241;DHT22;7723;52.170;9.978;2022-11-15T00:50:19;8.90;99.90
15241;DHT22;7723;52.170;9.978;2022-11-15T00:52:46;8.90;99.90
15241;DHT22;7723;52.170;9.978;2022-11-15T00:55:14;9.00;99.90
15241;DHT22;7723;52.170;9.978;2022-11-15T00:57:44;9.00;99.90
15241;DHT22;7723;52.170;9.978;2022-11-15T01:00:12;9.00;99.90
15241;DHT22;7723;52.170;9.978;2022-11-15T01:02:39;9.10;99.90
15241;DHT22;7723;52.170;9.978;2022-11-15T01:05:07;9.10;99.90
15241;DHT22;7723;52.170;9.978;2022-11-15T01:07:35;9.10;99.90
15241;DHT22;7723;52.170;9.978;2022-11-15T01:10:03;9.10;99.90
15241;DHT22;7723;52.170;9.978;2022-11-15T01:12:30;9.30;99.90
15241;DHT22;7723;52.170;9.978;2022-11-15T01:14:59;9.50;99.90
15241;DHT22;7723;52.170;9.978;2022-11-15T01:17:27;9.60;99.90
15241;DHT22;7723;52.170;9.978;2022-11-15T01:19:54;9.70;99.90
15241;DHT22;7723;52.170;9.978;2022-11-15T01:22:22;9.80;99.90
15241;DHT22;7723;52.170;9.978;2022-11-15T01:24:50;9.70;99.90
15241;DHT22;7723;52.170;9.978;2022-11-15T01:27:17;9.80;99.90
15241;DHT22;7723;52.170;9.978;2022-11-15T01:29:45;9.70;99.90
15241;DHT22;7723;52.170;9.978;2022-11-15T01:32:13;9.70;99.90
15241;DHT22;7723;52.170;9.978;2022-11-15T01:34:41;9.90;99.90
15241;DHT22;7723;52.170;9.978;2022-11-15T01:37:09;10.00;99.90
15241;DHT22;7723;52.170;9.978;2022-11-15T01:39:36;10.00;99.90
15241;DHT22;7723;52.170;9.978;2022-11-15T01:42:03;10.00;99.90
15241;DHT22;7723;52.170;9.978;2022-11-15T01:44:38;10.10;99.90
15241;DHT22;7723;52.170;9.978;2022-11-15T01:47:10;10.10;99.90
15241;DHT22;7723;52.170;9.978;2022-11-15T01:49:49;10.20;99.90
15241;DHT22;7723;52.170;9.978;2022-11-15T01:52:19;10.10;99.90
15241;DHT22;7723;52.170;9.978;2022-11-15T01:54:49;10.30;99.90
15241;DHT22;7723;52.170;9.978;2022-11-15T01:57:17;10.20;99.90
15241;DHT22;7723;52.170;9.978;2022-11-15T01:59:45;10.30;99.90
15241;DHT22;7723;52.170;9.978;2022-11-15T02:02:14;10.30;99.90
15241;DHT22;7723;52.170;9.978;2022-11-15T02:04:44;10.20;99.90
15241;DHT22;7723;52.170;9.978;2022-11-15T02:07:15;10.30;99.90
15241;DHT22;7723;52.170;9.978;2022-11-15T02:09:44;10.30;99.90
15241;DHT22;7723;52.170;9.978;2022-11-15T02:12:16;10.30;99.90
15241;DHT22;7723;52.170;9.978;2022-11-15T02:14:48;10.40;99.90
15241;DHT22;7723;52.170;9.978;2022-11-15T02:17:26;10.40;99.90
15241;DHT22;7723;52.170;9.978;2022-11-15T02:20:28;10.50;99.90
15241;DHT22;7723;52.170;9.978;2022-11-15T02:23:11;10.50;99.90
15241;DHT22;7723;52.170;9.978;2022-11-15T02:25:53;10.50;99.90
15241;DHT22;7723;52.170;9.978;2022-11-15T02:28:48;10.60;99.90
15241;DHT22;7723;52.170;9.978;2022-11-15T02:31:22;10.60;99.90
15241;DHT22;7723;52.170;9.978;2022-11-15T02:33:56;10.60;99.90
15241;DHT22;7723;52.170;9.978;2022-11-15T02:36:33;10.60;99.90
15241;DHT22;7723;52.170;9.978;2022-11-15T02:39:08;10.60;99.90
15241;DHT22;7723;52.170;9.978;2022-11-15T02:41:42;10.50;99.90
15241;DHT22;7723;52.170;9.978;2022-11-15T02:44:16;10.50;99.90
15241;DHT22;7723;52.170;9.978;2022-11-15T02:46:49;10.50;99.90
15241;DHT22;7723;52.170;9.978;2022-11-15T02:49:35;10.50;99.90
15241;DHT22;7723;52.170;9.978;2022-11-15T02:52:04;10.70;99.90
15241;DHT22;7723;52.170;9.978;2022-11-15T02:54:32;10.70;99.90
15241;DHT22;7723;52.170;9.978;2022-11-15T02:57:02;10.70;99.90
15241;DHT22;7723;52.170;9.978;2022-11-15T02:59:56;10.60;99.90
15241;DHT22;7723;52.170;9.978;2022-11-15T03:02:46;10.70;99.90
15241;DHT22;7723;52.170;9.978;2022-11-15T03:05:25;10.60;99.90
15241;DHT22;7723;52.170;9.978;2022-11-15T03:08:02;10.50;99.90
15241;DHT22;7723;52.170;9.978;2022-11-15T03:10:39;10.40;99.90
15241;DHT22;7723;52.170;9.978;2022-11-15T03:13:16;10.40;99.90
15241;DHT22;7723;52.170;9.978;2022-11-15T03:15:49;10.40;99.90
15241;DHT22;7723;52.170;9.978;2022-11-15T03:18:23;10.20;99.90
15241;DHT22;7723;52.170;9.978;2022-11-15T03:20:55;10.20;99.90
15241;DHT22;7723;52.170;9.978;2022-11-15T03:23:23;10.20;99.90
15241;DHT22;7723;52.170;9.978;2022-11-15T03:25:51;10.10;99.90
15241;DHT22;7723;52.170;9.978;2022-11-15T03:28:23;10.10;99.90
15241;DHT22;7723;52.170;9.978;2022-11-15T03:30:52;10.20;99.90
15241;DHT22;7723;52.170;9.978;2022-11-15T03:33:22;10.10;99.90
15241;DHT22;7723;52.170;9.978;2022-11-15T03:35:50;10.10;99.90
15241;DHT22;7723;52.170;9.978;2022-11-15T03:38:22;10.00;99.90
15241;DHT22;7723;52.170;9.978;2022-11-15T03:40:54;9.90;99.90
15241;DHT22;7723;52.170;9.978;2022-11-15T03:43:30;9.90;99.90
15241;DHT22;7723;52.170;9.978;2022-11-15T03:46:02;9.80;99.90
15241;DHT22;7723;52.170;9.978;2022-11-15T03:48:37;9.80;99.90
15241;DHT22;7723;52.170;9.978;2022-11-15T03:51:06;9.70;99.90
15241;DHT22;7723;52.170;9.978;2022-11-15T03:53:33;9.60;99.90
15241;DHT22;7723;52.170;9.978;2022-11-15T03:56:01;9.50;99.90
15241;DHT22;7723;52.170;9.978;2022-11-15T03:58:28;9.40;99.90
15241;DHT22;7723;52.170;9.978;2022-11-15T04:00:55;9.30;99.90
15241;DHT22;7723;52.170;9.978;2022-11-15T04:03:25;9.30;99.90
15241;DHT22;7723;52.170;9.978;2022-11-15T04:05:53;9.10;99.90
15241;DHT22;7723;52.170;9.978;2022-11-15T04:08:21;9.00;99.90
15241;DHT22;7723;52.170;9.978;2022-11-15T04:10:49;9.10;99.90
15241;DHT22;7723;52.170;9.978;2022-11-15T04:13:16;9.10;99.90
15241;DHT22;7723;52.170;9.978;2022-11-15T04:15:43;9.20;99.90
15241;DHT22;7723;52.170;9.978;2022-11-15T04:18:11;9.30;99.90
15241;DHT22;7723;52.170;9.978;2022-11-15T04:20:39;9.40;99.90
15241;DHT22;7723;52.170;9.978;2022-11-15T04:23:23;9.40;99.90
15241;DHT22;7723;52.170;9.978;2022-11-15T04:26:10;9.50;99.90
15241;DHT22;7723;52.170;9.978;2022-11-15T04:28:38;9.60;99.90
15241;DHT22;7723;52.170;9.978;2022-11-15T04:31:26;9.60;99.90
15241;DHT22;7723;52.170;9.978;2022-11-15T04:33:54;9.60;99.90
15241;DHT22;7723;52.170;9.978;2022-11-15T04:36:22;9.70;99.90
15241;DHT22;7723;52.170;9.978;2022-11-15T04:39:04;9.70;99.90
15241;DHT22;7723;52.170;9.978;2022-11-15T04:41:31;9.70;99.90
15241;DHT22;7723;52.170;9.978;2022-11-15T04:43:59;9.70;99.90
15241;DHT22;7723;52.170;9.978;2022-11-15T04:46:26;9.70;99.90
15241;DHT22;7723;52.170;9.978;2022-11-15T04:48:54;9.60;99.90
15241;DHT22;7723;52.170;9.978;2022-11-15T04:51:21;9.70;99.90
15241;DHT22;7723;52.170;9.978;2022-11-15T04:53:49;9.60;99.90
15241;DHT22;7723;52.170;9.978;2022-11-15T04:56:17;9.60;99.90
15241;DHT22;7723;52.170;9.978;2022-11-15T04:58:45;9.60;99.90
15241;DHT22;7723;52.170;9.978;2022-11-15T05:01:13;9.60;99.90
15241;DHT22;7723;52.170;9.978;2022-11-15T05:03:41;9.60;99.90
15241;DHT22;7723;52.170;9.978;2022-11-15T05:06:26;9.60;99.90
15241;DHT22;7723;52.170;9.978;2022-11-15T05:08:53;9.70;99.90
15241;DHT22;7723;52.170;9.978;2022-11-15T05:11:22;9.60;99.90
15241;DHT22;7723;52.170;9.978;2022-11-15T05:13:50;9.50;99.90
15241;DHT22;7723;52.170;9.978;2022-11-15T05:16:17;9.60;99.90
15241;DHT22;7723;52.170;9.978;2022-11-15T05:18:44;9.70;99.90
15241;DHT22;7723;52.170;9.978;2022-11-15T05:21:13;9.70;99.90
15241;DHT22;7723;52.170;9.978;2022-11-15T05:23:41;9.60;99.90
15241;DHT22;7723;52.170;9.978;2022-11-15T05:26:09;9.50;99.90
15241;DHT22;7723;52.170;9.978;2022-11-15T05:28:38;9.60;99.90
15241;DHT22;7723;52.170;9.978;2022-11-15T05:31:12;9.60;99.90
15241;DHT22;7723;52.170;9.978;2022-11-15T05:33:40;9.70;99.90
15241;DHT22;7723;52.170;9.978;2022-11-15T05:36:12;9.70;99.90
15241;DHT22;7723;52.170;9.978;2022-11-15T05:38:40;9.70;99.90
15241;DHT22;7723;52.170;9.978;2022-11-15T05:41:08;9.80;99.90
15241;DHT22;7723;52.170;9.978;2022-11-15T05:43:38;9.80;99.90
15241;DHT22;7723;52.170;9.978;2022-11-15T05:46:06;10.00;99.90
15241;DHT22;7723;52.170;9.978;2022-11-15T05:48:34;10.00;99.90
15241;DHT22;7723;52.170;9.978;2022-11-15T05:51:03;10.10;99.90
15241;DHT22;7723;52.170;9.978;2022-11-15T05:53:32;10.20;99.90
15241;DHT22;7723;52.170;9.978;2022-11-15T05:55:59;10.40;99.90
15241;DHT22;7723;52.170;9.978;2022-11-15T05:58:27;10.50;99.90
15241;DHT22;7723;52.170;9.978;2022-11-15T06:00:56;10.50;99.90
15241;DHT22;7723;52.170;9.978;2022-11-15T06:03:23;10.50;99.90
15241;DHT22;7723;52.170;9.978;2022-11-15T06:05:50;10.40;99.90
15241;DHT22;7723;52.170;9.978;2022-11-15T06:08:17;10.30;99.90
15241;DHT22;7723;52.170;9.978;2022-11-15T06:10:44;10.20;99.90
15241;DHT22;7723;52.170;9.978;2022-11-15T06:13:12;10.00;99.90
15241;DHT22;7723;52.170;9.978;2022-11-15T06:15:39;10.00;99.90
15241;DHT22;7723;52.170;9.978;2022-11-15T06:18:08;10.00;99.90
15241;DHT22;7723;52.170;9.978;2022-11-15T06:20:35;9.90;99.90
15241;DHT22;7723;52.170;9.978;2022-11-15T06:23:04;9.80;99.90
15241;DHT22;7723;52.170;9.978;2022-11-15T06:25:31;9.80;99.90
15241;DHT22;7723;52.170;9.978;2022-11-15T06:27:59;9.60;99.90
15241;DHT22;7723;52.170;9.978;2022-11-15T06:30:26;9.50;99.90
15241;DHT22;7723;52.170;9.978;2022-11-15T06:32:59;9.30;99.90
15241;DHT22;7723;52.170;9.978;2022-11-15T06:35:28;9.20;99.90
15241;DHT22;7723;52.170;9.978;2022-11-15T06:37:56;9.20;99.90
15241;DHT22;7723;52.170;9.978;2022-11-15T06:40:23;9.10;99.90
15241;DHT22;7723;52.170;9.978;2022-11-15T06:42:50;9.10;99.90
15241;DHT22;7723;52.170;9.978;2022-11-15T06:45:17;9.00;99.90
15241;DHT22;7723;52.170;9.978;2022-11-15T06:47:45;9.00;99.90
15241;DHT22;7723;52.170;9.978;2022-11-15T06:50:13;9.10;99.90
15241;DHT22;7723;52.170;9.978;2022-11-15T06:52:42;9.00;99.90
15241;DHT22;7723;52.170;9.978;2022-11-15T06:55:10;9.00;99.90
15241;DHT22;7723;52.170;9.978;2022-11-15T06:57:43;9.00;99.90
15241;DHT22;7723;52.170;9.978;2022-11-15T07:00:14;9.10;99.90
15241;DHT22;7723;52.170;9.978;2022-11-15T07:02:43;9.20;99.90
15241;DHT22;7723;52.170;9.978;2022-11-15T07:05:11;9.30;99.90
15241;DHT22;7723;52.170;9.978;2022-11-15T07:07:38;9.30;99.90
15241;DHT22;7723;52.170;9.978;2022-11-15T07:10:08;9.60;99.90
15241;DHT22;7723;52.170;9.978;2022-11-15T07:12:35;9.70;99.90
15241;DHT22;7723;52.170;9.978;2022-11-15T07:15:03;9.80;99.90
15241;DHT22;7723;52.170;9.978;2022-11-15T07:17:30;9.80;99.90
15241;DHT22;7723;52.170;9.978;2022-11-15T07:19:58;9.80;99.90
15241;DHT22;7723;52.170;9.978;2022-11-15T07:22:25;9.90;99.90
15241;DHT22;7723;52.170;9.978;2022-11-15T07:24:53;9.90;99.90
15241;DHT22;7723;52.170;9.978;2022-11-15T07:27:21;10.10;99.90
15241;DHT22;7723;52.170;9.978;2022-11-15T07:29:49;10.50;99.90
15241;DHT22;7723;52.170;9.978;2022-11-15T07:32:16;10.90;99.90
15241;DHT22;7723;52.170;9.978;2022-11-15T07:34:43;11.20;99.90
15241;DHT22;7723;52.170;9.978;2022-11-15T07:37:12;11.50;99.90
15241;DHT22;7723;52.170;9.978;2022-11-15T07:39:39;11.70;99.90
15241;DHT22;7723;52.170;9.978;2022-11-15T07:42:06;12.00;99.90
15241;DHT22;7723;52.170;9.978;2022-11-15T07:44:58;12.20;99.90
15241;DHT22;7723;52.170;9.978;2022-11-15T07:47:25;12.40;99.90
15241;DHT22;7723;52.170;9.978;2022-11-15T07:49:55;12.50;99.90
15241;DHT22;7723;52.170;9.978;2022-11-15T07:52:22;12.70;99.90
15241;DHT22;7723;52.170;9.978;2022-11-15T07:54:49;12.90;99.90
15241;DHT22;7723;52.170;9.978;2022-11-15T07:57:17;13.00;99.90
15241;DHT22;7723;52.170;9.978;2022-11-15T07:59:44;13.10;96.90
15241;DHT22;7723;52.170;9.978;2022-11-15T08:02:12;13.20;90.20
15241;DHT22;7723;52.170;9.978;2022-11-15T08:04:42;13.30;77.70
15241;DHT22;7723;52.170;9.978;2022-11-15T08:07:09;13.40;61.10
15241;DHT22;7723;52.170;9.978;2022-11-15T08:09:36;13.10;50.70
15241;DHT22;7723;52.170;9.978;2022-11-15T08:12:04;12.80;59.40
15241;DHT22;7723;52.170;9.978;2022-11-15T08:14:32;12.40;68.30
15241;DHT22;7723;52.170;9.978;2022-11-15T08:16:59;12.30;78.80
15241;DHT22;7723;52.170;9.978;2022-11-15T08:19:28;12.10;85.70
15241;DHT22;7723;52.170;9.978;2022-11-15T08:21:55;12.00;91.20
15241;DHT22;7723;52.170;9.978;2022-11-15T08:24:22;12.00;94.20
15241;DHT22;7723;52.170;9.978;2022-11-15T08:26:49;12.10;95.00
15241;DHT22;7723;52.170;9.978;2022-11-15T08:29:17;12.40;91.20
15241;DHT22;7723;52.170;9.978;2022-11-15T08:31:44;12.50;82.40
15241;DHT22;7723;52.170;9.978;2022-11-15T08:34:11;12.60;73.80
15241;DHT22;7723;52.170;9.978;2022-11-15T08:36:40;12.80;78.10
15241;DHT22;7723;52.170;9.978;2022-11-15T08:39:10;13.10;64.40
15241;DHT22;7723;52.170;9.978;2022-11-15T08:41:38;13.30;49.00
15241;DHT22;7723;52.170;9.978;2022-11-15T08:44:05;13.60;42.70
15241;DHT22;7723;52.170;9.978;2022-11-15T08:46:32;14.10;31.80
15241;DHT22;7723;52.170;9.978;2022-11-15T08:48:59;14.50;12.50
15241;DHT22;7723;52.170;9.978;2022-11-15T08:51:27;14.80;4.40
15241;DHT22;7723;52.170;9.978;2022-11-15T08:53:56;14.80;1.00
15241;DHT22;7723;52.170;9.978;2022-11-15T08:56:23;14.50;1.00
15241;DHT22;7723;52.170;9.978;2022-11-15T08:58:50;14.40;1.00
15241;DHT22;7723;52.170;9.978;2022-11-15T09:01:19;14.30;1.00
15241;DHT22;7723;52.170;9.978;2022-11-15T09:03:47;14.30;1.00
15241;DHT22;7723;52.170;9.978;2022-11-15T09:06:14;14.20;1.00
15241;DHT22;7723;52.170;9.978;2022-11-15T09:08:42;14.20;1.00
15241;DHT22;7723;52.170;9.978;2022-11-15T09:11:11;14.10;1.00
15241;DHT22;7723;52.170;9.978;2022-11-15T09:13:38;14.10;1.00
15241;DHT22;7723;52.170;9.978;2022-11-15T09:16:06;14.10;1.00
15241;DHT22;7723;52.170;9.978;2022-11-15T09:18:34;14.30;1.00
15241;DHT22;7723;52.170;9.978;2022-11-15T09:21:01;14.20;1.00
15241;DHT22;7723;52.170;9.978;2022-11-15T09:23:30;14.30;1.00
15241;DHT22;7723;52.170;9.978;2022-11-15T09:26:00;14.40;1.00
15241;DHT22;7723;52.170;9.978;2022-11-15T09:28:30;14.30;1.00
15241;DHT22;7723;52.170;9.978;2022-11-15T09:30:59;14.20;1.00
15241;DHT22;7723;52.170;9.978;2022-11-15T09:33:26;13.90;1.00
15241;DHT22;7723;52.170;9.978;2022-11-15T09:35:57;14.10;1.00
15241;DHT22;7723;52.170;9.978;2022-11-15T09:38:26;14.30;1.00
15241;DHT22;7723;52.170;9.978;2022-11-15T09:41:06;14.00;1.00
15241;DHT22;7723;52.170;9.978;2022-11-15T09:43:43;13.90;1.00
15241;DHT22;7723;52.170;9.978;2022-11-15T09:46:16;14.00;1.00
15241;DHT22;7723;52.170;9.978;2022-11-15T09:48:50;13.90;1.00
15241;DHT22;7723;52.170;9.978;2022-11-15T09:51:25;14.10;1.00
15241;DHT22;7723;52.170;9.978;2022-11-15T09:54:00;14.00;1.00
15241;DHT22;7723;52.170;9.978;2022-11-15T09:56:29;13.90;1.00
15241;DHT22;7723;52.170;9.978;2022-11-15T09:59:11;13.90;1.00
15241;DHT22;7723;52.170;9.978;2022-11-15T10:01:47;13.80;1.00
15241;DHT22;7723;52.170;9.978;2022-11-15T10:04:17;13.70;1.00
15241;DHT22;7723;52.170;9.978;2022-11-15T10:06:49;13.60;1.00
15241;DHT22;7723;52.170;9.978;2022-11-15T10:09:22;13.70;1.00
15241;DHT22;7723;52.170;9.978;2022-11-15T10:11:50;13.90;1.00
15241;DHT22;7723;52.170;9.978;2022-11-15T10:14:21;13.90;1.00
15241;DHT22;7723;52.170;9.978;2022-11-15T10:17:09;14.00;1.00
15241;DHT22;7723;52.170;9.978;2022-11-15T10:19:46;13.90;1.00
15241;DHT22;7723;52.170;9.978;2022-11-15T10:22:24;14.00;1.00
15241;DHT22;7723;52.170;9.978;2022-11-15T10:25:01;13.90;1.00
15241;DHT22;7723;52.170;9.978;2022-11-15T10:27:39;14.00;1.00
15241;DHT22;7723;52.170;9.978;2022-11-15T10:30:13;13.90;1.00
15241;DHT22;7723;52.170;9.978;2022-11-15T10:32:43;13.80;1.00
15241;DHT22;7723;52.170;9.978;2022-11-15T10:35:23;13.70;1.00
15241;DHT22;7723;52.170;9.978;2022-11-15T10:37:51;13.70;1.00
15241;DHT22;7723;52.170;9.978;2022-11-15T10:40:21;13.80;1.00
15241;DHT22;7723;52.170;9.978;2022-11-15T10:43:02;13.80;1.00
15241;DHT22;7723;52.170;9.978;2022-11-15T10:45:33;13.90;1.00
15241;DHT22;7723;52.170;9.978;2022-11-15T10:48:24;13.60;1.00
15241;DHT22;7723;52.170;9.978;2022-11-15T10:50:53;13.60;1.00
15241;DHT22;7723;52.170;9.978;2022-11-15T10:53:29;13.60;1.00
15241;DHT22;7723;52.170;9.978;2022-11-15T10:56:02;13.60;2.30
15241;DHT22;7723;52.170;9.978;2022-11-15T10:58:34;13.60;3.00
15241;DHT22;7723;52.170;9.978;2022-11-15T11:01:12;13.70;1.00
15241;DHT22;7723;52.170;9.978;2022-11-15T11:03:41;13.70;1.20
15241;DHT22;7723;52.170;9.978;2022-11-15T11:06:11;13.60;2.30
15241;DHT22;7723;52.170;9.978;2022-11-15T11:08:39;13.70;2.30
15241;DHT22;7723;52.170;9.978;2022-11-15T11:11:07;13.70;2.40
15241;DHT22;7723;52.170;9.978;2022-11-15T11:13:36;13.70;1.60
15241;DHT22;7723;52.170;9.978;2022-11-15T11:19:03;13.70;1.00
15241;DHT22;7723;52.170;9.978;2022-11-15T11:21:40;13.70;3.00
15241;DHT22;7723;52.170;9.978;2022-11-15T11:24:15;13.80;5.70
15241;DHT22;7723;52.170;9.978;2022-11-15T11:26:53;13.80;3.70
15241;DHT22;7723;52.170;9.978;2022-11-15T11:29:34;13.70;3.30
15241;DHT22;7723;52.170;9.978;2022-11-15T11:32:16;13.70;4.40
15241;DHT22;7723;52.170;9.978;2022-11-15T11:34:54;13.70;5.70
15241;DHT22;7723;52.170;9.978;2022-11-15T11:37:28;13.70;4.60
15241;DHT22;7723;52.170;9.978;2022-11-15T11:40:06;13.60;4.50
15241;DHT22;7723;52.170;9.978;2022-11-15T11:42:43;13.60;4.30
15241;DHT22;7723;52.170;9.978;2022-11-15T11:45:18;13.60;5.50
15241;DHT22;7723;52.170;9.978;2022-11-15T11:47:48;13.70;5.80
15241;DHT22;7723;52.170;9.978;2022-11-15T11:50:21;13.70;4.10
15241;DHT22;7723;52.170;9.978;2022-11-15T11:52:56;13.60;2.60
15241;DHT22;7723;52.170;9.978;2022-11-15T11:55:28;13.50;4.50
15241;DHT22;7723;52.170;9.978;2022-11-15T11:58:06;13.50;7.30
15241;DHT22;7723;52.170;9.978;2022-11-15T12:00:40;13.50;8.20
15241;DHT22;7723;52.170;9.978;2022-11-15T12:03:12;13.60;10.20
15241;DHT22;7723;52.170;9.978;2022-11-15T12:05:44;13.60;8.90
15241;DHT22;7723;52.170;9.978;2022-11-15T12:08:25;13.60;6.70
15241;DHT22;7723;52.170;9.978;2022-11-15T12:11:00;13.80;6.90
15241;DHT22;7723;52.170;9.978;2022-11-15T12:13:30;13.80;3.80
15241;DHT22;7723;52.170;9.978;2022-11-15T12:16:06;13.90;4.90
15241;DHT22;7723;52.170;9.978;2022-11-15T12:18:35;14.10;2.70
15241;DHT22;7723;52.170;9.978;2022-11-15T12:21:07;14.00;1.00
15241;DHT22;7723;52.170;9.978;2022-11-15T12:23:40;13.90;1.00
15241;DHT22;7723;52.170;9.978;2022-11-15T12:26:11;13.90;3.90
15241;DHT22;7723;52.170;9.978;2022-11-15T12:28:46;13.80;2.10
15241;DHT22;7723;52.170;9.978;2022-11-15T12:31:18;13.70;4.90
15241;DHT22;7723;52.170;9.978;2022-11-15T12:33:49;13.70;4.50
15241;DHT22;7723;52.170;9.978;2022-11-15T12:36:35;13.70;5.30
15241;DHT22;7723;52.170;9.978;2022-11-15T12:39:04;13.80;4.00
15241;DHT22;7723;52.170;9.978;2022-11-15T12:41:34;13.70;4.40
15241;DHT22;7723;52.170;9.978;2022-11-15T12:44:03;13.70;6.60
15241;DHT22;7723;52.170;9.978;2022-11-15T12:46:59;13.70;5.40
15241;DHT22;7723;52.170;9.978;2022-11-15T12:49:45;13.60;5.70
15241;DHT22;7723;52.170;9.978;2022-11-15T12:52:14;13.70;6.90
15241;DHT22;7723;52.170;9.978;2022-11-15T12:54:56;13.60;7.70
15241;DHT22;7723;52.170;9.978;2022-11-15T12:57:33;13.60;6.20
15241;DHT22;7723;52.170;9.978;2022-11-15T13:00:04;13.60;6.30
15241;DHT22;7723;52.170;9.978;2022-11-15T13:02:34;13.60;7.70
15241;DHT22;7723;52.170;9.978;2022-11-15T13:05:51;13.70;6.20
15241;DHT22;7723;52.170;9.978;2022-11-15T13:11:45;13.70;5.10
15241;DHT22;7723;52.170;9.978;2022-11-15T13:14:37;13.70;4.20
15241;DHT22;7723;52.170;9.978;2022-11-15T13:17:29;13.70;4.40
15241;DHT22;7723;52.170;9.978;2022-11-15T13:20:08;13.70;6.60
15241;DHT22;7723;52.170;9.978;2022-11-15T13:22:41;13.70;6.80
15241;DHT22;7723;52.170;9.978;2022-11-15T13:25:57;13.80;7.50
15241;DHT22;7723;52.170;9.978;2022-11-15T13:28:32;13.80;7.60
15241;DHT22;7723;52.170;9.978;2022-11-15T13:31:01;13.80;6.70
15241;DHT22;7723;52.170;9.978;2022-11-15T13:33:32;13.80;5.50
15241;DHT22;7723;52.170;9.978;2022-11-15T13:36:01;13.80;3.70
15241;DHT22;7723;52.170;9.978;2022-11-15T13:38:30;13.90;5.70
15241;DHT22;7723;52.170;9.978;2022-11-15T13:40:59;13.90;3.50
15241;DHT22;7723;52.170;9.978;2022-11-15T13:43:38;13.80;4.30
15241;DHT22;7723;52.170;9.978;2022-11-15T13:46:13;13.90;5.50
15241;DHT22;7723;52.170;9.978;2022-11-15T13:48:43;13.90;3.80
15241;DHT22;7723;52.170;9.978;2022-11-15T13:51:17;13.90;2.10
15241;DHT22;7723;52.170;9.978;2022-11-15T13:53:48;14.00;2.60
15241;DHT22;7723;52.170;9.978;2022-11-15T13:56:17;14.00;2.60
15241;DHT22;7723;52.170;9.978;2022-11-15T13:58:48;14.00;1.30
15241;DHT22;7723;52.170;9.978;2022-11-15T14:01:17;14.00;2.40
15241;DHT22;7723;52.170;9.978;2022-11-15T14:03:53;14.10;1.50
15241;DHT22;7723;52.170;9.978;2022-11-15T14:06:22;14.20;1.00
15241;DHT22;7723;52.170;9.978;2022-11-15T14:11:52;14.30;1.00
15241;DHT22;7723;52.170;9.978;2022-11-15T14:14:23;14.20;1.00
15241;DHT22;7723;52.170;9.978;2022-11-15T14:16:52;14.20;1.00
15241;DHT22;7723;52.170;9.978;2022-11-15T14:19:39;14.20;1.00
15241;DHT22;7723;52.170;9.978;2022-11-15T14:22:16;14.20;1.00
15241;DHT22;7723;52.170;9.978;2022-11-15T14:24:45;14.10;1.00
15241;DHT22;7723;52.170;9.978;2022-11-15T14:27:21;14.10;1.00
15241;DHT22;7723;52.170;9.978;2022-11-15T14:29:49;14.10;1.00
15241;DHT22;7723;52.170;9.978;2022-11-15T14:32:19;14.00;1.00
15241;DHT22;7723;52.170;9.978;2022-11-15T14:34:47;14.00;1.00
15241;DHT22;7723;52.170;9.978;2022-11-15T14:37:23;14.00;1.00
15241;DHT22;7723;52.170;9.978;2022-11-15T14:39:51;14.00;1.10
15241;DHT22;7723;52.170;9.978;2022-11-15T14:42:20;13.90;1.50
15241;DHT22;7723;52.170;9.978;2022-11-15T14:44:49;13.90;1.20
15241;DHT22;7723;52.170;9.978;2022-11-15T14:47:16;13.90;1.00
15241;DHT22;7723;52.170;9.978;2022-11-15T14:49:44;13.90;1.00
15241;DHT22;7723;52.170;9.978;2022-11-15T14:52:26;13.90;1.00
15241;DHT22;7723;52.170;9.978;2022-11-15T14:54:54;13.80;1.00
15241;DHT22;7723;52.170;9.978;2022-11-15T14:57:23;13.80;1.00
15241;DHT22;7723;52.170;9.978;2022-11-15T14:59:52;13.80;1.00
15241;DHT22;7723;52.170;9.978;2022-11-15T15:02:22;13.70;1.00
15241;DHT22;7723;52.170;9.978;2022-11-15T15:04:50;13.70;1.00
15241;DHT22;7723;52.170;9.978;2022-11-15T15:07:19;13.80;1.00
15241;DHT22;7723;52.170;9.978;2022-11-15T15:09:47;13.70;1.00
15241;DHT22;7723;52.170;9.978;2022-11-15T15:12:16;13.70;1.00
15241;DHT22;7723;52.170;9.978;2022-11-15T15:14:44;13.70;1.00
15241;DHT22;7723;52.170;9.978;2022-11-15T15:17:13;13.60;1.50
15241;DHT22;7723;52.170;9.978;2022-11-15T15:19:41;13.60;1.00
15241;DHT22;7723;52.170;9.978;2022-11-15T15:22:13;13.60;1.80
15241;DHT22;7723;52.170;9.978;2022-11-15T15:24:41;13.50;3.50
15241;DHT22;7723;52.170;9.978;2022-11-15T15:27:09;13.50;3.30
15241;DHT22;7723;52.170;9.978;2022-11-15T15:29:36;13.40;4.10
15241;DHT22;7723;52.170;9.978;2022-11-15T15:32:04;13.40;4.20
15241;DHT22;7723;52.170;9.978;2022-11-15T15:34:33;13.40;5.00
15241;DHT22;7723;52.170;9.978;2022-11-15T15:37:08;13.30;5.60
15241;DHT22;7723;52.170;9.978;2022-11-15T15:39:35;13.30;6.50
15241;DHT22;7723;52.170;9.978;2022-11-15T15:42:02;13.20;9.70
15241;DHT22;7723;52.170;9.978;2022-11-15T15:44:31;13.10;15.50
15241;DHT22;7723;52.170;9.978;2022-11-15T15:46:58;13.00;23.20
15241;DHT22;7723;52.170;9.978;2022-11-15T15:49:25;12.90;32.10
15241;DHT22;7723;52.170;9.978;2022-11-15T15:51:54;12.90;43.40
15241;DHT22;7723;52.170;9.978;2022-11-15T15:54:21;12.80;60.90
15241;DHT22;7723;52.170;9.978;2022-11-15T15:56:48;12.80;86.50
15241;DHT22;7723;52.170;9.978;2022-11-15T15:59:16;12.70;99.90
15241;DHT22;7723;52.170;9.978;2022-11-15T16:01:43;12.60;99.90
15241;DHT22;7723;52.170;9.978;2022-11-15T16:04:10;12.60;99.90
15241;DHT22;7723;52.170;9.978;2022-11-15T16:06:39;12.50;99.90
15241;DHT22;7723;52.170;9.978;2022-11-15T16:09:13;12.40;99.90
15241;DHT22;7723;52.170;9.978;2022-11-15T16:11:41;12.40;99.90
15241;DHT22;7723;52.170;9.978;2022-11-15T16:14:09;12.30;99.90
15241;DHT22;7723;52.170;9.978;2022-11-15T16:16:36;12.20;99.90
15241;DHT22;7723;52.170;9.978;2022-11-15T16:19:04;12.10;99.90
15241;DHT22;7723;52.170;9.978;2022-11-15T16:21:31;12.10;99.90
15241;DHT22;7723;52.170;9.978;2022-11-15T16:24:00;12.00;99.90
15241;DHT22;7723;52.170;9.978;2022-11-15T16:26:29;12.00;99.90
15241;DHT22;7723;52.170;9.978;2022-11-15T16:28:57;11.90;99.90
15241;DHT22;7723;52.170;9.978;2022-11-15T16:31:26;11.80;99.90